sensor_id;sensor_type;location;lat;lon;timestamp;pressure;altitude;pressure_sealevel;temperature;humidity
42411;BME280;28056;51.112;0.984;2023-05-11T00:04:53;100517.43;;;15.86;55.28
42411;BME280;28056;51.112;0.984;2023-05-11T00:07:20;100515.76;;;16.16;55.01
42411;BME280;28056;51.112;0.984;2023-05-11T00:09:48;100514.36;;;15.83;55.69
42411;BME280;28056;51.112;0.984;2023-05-11T00:12:16;100514.06;;;15.77;57.51
42411;BME280;28056;51.112;0.984;2023-05-11T00:14:43;100515.28;;;15.61;57.50
42411;BME280;28056;51.112;0.984;2023-05-11T00:17:11;100514.46;;;15.71;57.89
42411;BME280;28056;51.112;0.984;2023-05-11T00:19:39;100513.01;;;15.10;60.45
42411;BME280;28056;51.112;0.984;2023-05-11T00:22:07;100515.13;;;15.33;59.71
42411;BME280;28056;51.112;0.984;2023-05-11T00:24:34;100514.23;;;14.78;61.66
42411;BME280;28056;51.112;0.984;2023-05-11T00:27:01;100517.23;;;14.88;61.88
42411;BME280;28056;51.112;0.984;2023-05-11T00:29:29;100520.31;;;14.56;62.78
42411;BME280;28056;51.112;0.984;2023-05-11T00:31:56;100514.72;;;14.86;61.67
42411;BME280;28056;51.112;0.984;2023-05-11T00:34:23;100516.28;;;14.67;62.32
42411;BME280;28056;51.112;0.984;2023-05-11T00:36:50;100514.07;;;14.67;62.46
42411;BME280;28056;51.112;0.984;2023-05-11T00:39:18;100516.95;;;14.49;63.06
42411;BME280;28056;51.112;0.984;2023-05-11T00:41:46;100516.08;;;14.04;64.44
42411;BME280;28056;51.112;0.984;2023-05-11T00:44:14;100518.92;;;14.05;64.50
42411;BME280;28056;51.112;0.984;2023-05-11T00:46:41;100518.46;;;13.91;64.90
42411;BME280;28056;51.112;0.984;2023-05-11T00:49:09;100519.16;;;13.28;67.44
42411;BME280;28056;51.112;0.984;2023-05-11T00:51:37;100521.15;;;12.89;68.62
42411;BME280;28056;51.112;0.984;2023-05-11T00:54:05;100520.57;;;13.16;68.28
42411;BME280;28056;51.112;0.984;2023-05-11T00:56:32;100523.90;;;11.46;71.97
42411;BME280;28056;51.112;0.984;2023-05-11T00:59:00;100524.64;;;11.61;74.35
42411;BME280;28056;51.112;0.984;2023-05-11T01:01:28;100524.73;;;10.97;75.45
42411;BME280;28056;51.112;0.984;2023-05-11T01:03:56;100524.67;;;11.03;76.01
42411;BME280;28056;51.112;0.984;2023-05-11T01:06:28;100524.51;;;10.45;77.54
42411;BME280;28056;51.112;0.984;2023-05-11T01:09:02;100524.43;;;10.39;78.99
42411;BME280;28056;51.112;0.984;2023-05-11T01:11:38;100525.69;;;10.16;81.21
42411;BME280;28056;51.112;0.984;2023-05-11T01:14:13;100522.92;;;9.93;81.45
42411;BME280;28056;51.112;0.984;2023-05-11T01:16:43;100524.09;;;10.60;80.86
42411;BME280;28056;51.112;0.984;2023-05-11T01:19:18;100528.90;;;10.15;82.68
42411;BME280;28056;51.112;0.984;2023-05-11T01:21:50;100529.46;;;9.81;84.15
42411;BME280;28056;51.112;0.984;2023-05-11T01:24:25;100528.06;;;9.74;84.80
42411;BME280;28056;51.112;0.984;2023-05-11T01:27:13;100527.68;;;9.91;84.72
42411;BME280;28056;51.112;0.984;2023-05-11T01:30:35;100529.06;;;9.83;84.66
42411;BME280;28056;51.112;0.984;2023-05-11T01:33:08;100528.62;;;9.73;83.79
42411;BME280;28056;51.112;0.984;2023-05-11T01:35:42;100531.08;;;9.79;84.36
42411;BME280;28056;51.112;0.984;2023-05-11T01:38:13;100531.17;;;10.42;82.99
42411;BME280;28056;51.112;0.984;2023-05-11T01:40:43;100534.12;;;9.80;83.90
42411;BME280;28056;51.112;0.984;2023-05-11T01:43:20;100537.33;;;9.48;84.50
42411;BME280;28056;51.112;0.984;2023-05-11T01:45:50;100541.23;;;9.72;83.88
42411;BME280;28056;51.112;0.984;2023-05-11T01:48:23;100540.71;;;10.30;82.11
42411;BME280;28056;51.112;0.984;2023-05-11T01:50:52;100540.05;;;9.88;81.26
42411;BME280;28056;51.112;0.984;2023-05-11T01:53:23;100544.47;;;9.83;80.83
42411;BME280;28056;51.112;0.984;2023-05-11T01:55:54;100545.56;;;10.06;81.42
42411;BME280;28056;51.112;0.984;2023-05-11T01:58:23;100547.58;;;9.46;83.54
42411;BME280;28056;51.112;0.984;2023-05-11T02:00:52;100550.65;;;9.37;83.83
42411;BME280;28056;51.112;0.984;2023-05-11T02:03:20;100550.02;;;8.84;84.45
42411;BME280;28056;51.112;0.984;2023-05-11T02:05:48;100550.69;;;9.31;83.25
42411;BME280;28056;51.112;0.984;2023-05-11T02:08:16;100549.81;;;9.29;82.39
42411;BME280;28056;51.112;0.984;2023-05-11T02:10:46;100553.02;;;9.50;80.54
42411;BME280;28056;51.112;0.984;2023-05-11T02:13:15;100553.21;;;9.48;80.03
42411;BME280;28056;51.112;0.984;2023-05-11T02:15:46;100557.75;;;9.41;79.85
42411;BME280;28056;51.112;0.984;2023-05-11T02:18:19;100556.26;;;9.93;77.74
42411;BME280;28056;51.112;0.984;2023-05-11T02:20:47;100553.93;;;10.31;76.06
42411;BME280;28056;51.112;0.984;2023-05-11T02:23:16;100558.53;;;10.07;76.44
42411;BME280;28056;51.112;0.984;2023-05-11T02:25:44;100560.69;;;9.84;76.22
42411;BME280;28056;51.112;0.984;2023-05-11T02:28:11;100560.89;;;10.19;76.29
42411;BME280;28056;51.112;0.984;2023-05-11T02:30:43;100558.99;;;10.30;74.96
42411;BME280;28056;51.112;0.984;2023-05-11T02:33:17;100555.81;;;10.47;74.00
42411;BME280;28056;51.112;0.984;2023-05-11T02:35:46;100556.16;;;10.12;73.95
42411;BME280;28056;51.112;0.984;2023-05-11T02:38:15;100554.07;;;10.95;71.75
42411;BME280;28056;51.112;0.984;2023-05-11T02:40:48;100554.83;;;10.54;71.68
42411;BME280;28056;51.112;0.984;2023-05-11T02:43:21;100557.53;;;10.74;70.71
42411;BME280;28056;51.112;0.984;2023-05-11T02:45:52;100560.14;;;11.11;69.29
42411;BME280;28056;51.112;0.984;2023-05-11T02:48:26;100560.10;;;11.22;68.22
42411;BME280;28056;51.112;0.984;2023-05-11T02:50:55;100559.53;;;10.90;67.84
42411;BME280;28056;51.112;0.984;2023-05-11T02:53:26;100559.07;;;10.50;68.87
42411;BME280;28056;51.112;0.984;2023-05-11T02:55:55;100558.09;;;10.99;67.70
42411;BME280;28056;51.112;0.984;2023-05-11T02:58:23;100555.66;;;10.98;66.69
42411;BME280;28056;51.112;0.984;2023-05-11T03:00:51;100556.52;;;10.95;66.48
42411;BME280;28056;51.112;0.984;2023-05-11T03:03:19;100558.64;;;11.06;66.57
42411;BME280;28056;51.112;0.984;2023-05-11T03:05:46;100563.94;;;10.42;68.56
42411;BME280;28056;51.112;0.984;2023-05-11T03:08:14;100561.49;;;10.75;68.03
42411;BME280;28056;51.112;0.984;2023-05-11T03:10:43;100561.05;;;10.78;67.76
42411;BME280;28056;51.112;0.984;2023-05-11T03:13:11;100562.09;;;10.72;67.68
42411;BME280;28056;51.112;0.984;2023-05-11T03:15:39;100563.55;;;10.87;67.92
42411;BME280;28056;51.112;0.984;2023-05-11T03:18:08;100562.50;;;10.54;67.65
42411;BME280;28056;51.112;0.984;2023-05-11T03:20:38;100560.52;;;10.24;67.89
42411;BME280;28056;51.112;0.984;2023-05-11T03:23:06;100563.31;;;9.98;70.46
42411;BME280;28056;51.112;0.984;2023-05-11T03:25:35;100561.77;;;9.41;72.58
42411;BME280;28056;51.112;0.984;2023-05-11T03:28:03;100561.43;;;9.09;74.50
42411;BME280;28056;51.112;0.984;2023-05-11T03:30:32;100557.95;;;9.27;73.63
42411;BME280;28056;51.112;0.984;2023-05-11T03:32:59;100559.48;;;9.13;74.40
42411;BME280;28056;51.112;0.984;2023-05-11T03:35:32;100558.10;;;9.32;73.98
42411;BME280;28056;51.112;0.984;2023-05-11T03:37:59;100557.88;;;9.59;73.81
42411;BME280;28056;51.112;0.984;2023-05-11T03:40:27;100556.38;;;9.55;73.87
42411;BME280;28056;51.112;0.984;2023-05-11T03:42:56;100557.62;;;9.65;73.01
42411;BME280;28056;51.112;0.984;2023-05-11T03:45:25;100559.49;;;9.45;73.33
42411;BME280;28056;51.112;0.984;2023-05-11T03:47:55;100561.72;;;9.62;72.49
42411;BME280;28056;51.112;0.984;2023-05-11T03:50:23;100559.01;;;9.78;71.70
42411;BME280;28056;51.112;0.984;2023-05-11T03:52:52;100559.03;;;10.11;69.95
42411;BME280;28056;51.112;0.984;2023-05-11T03:55:20;100557.29;;;9.98;70.75
42411;BME280;28056;51.112;0.984;2023-05-11T03:57:48;100556.16;;;10.02;69.73
42411;BME280;28056;51.112;0.984;2023-05-11T04:00:16;100558.99;;;10.14;69.87
42411;BME280;28056;51.112;0.984;2023-05-11T04:02:44;100556.57;;;9.80;70.45
42411;BME280;28056;51.112;0.984;2023-05-11T04:05:12;100555.53;;;9.65;70.91
42411;BME280;28056;51.112;0.984;2023-05-11T04:07:39;100555.77;;;9.64;70.72
42411;BME280;28056;51.112;0.984;2023-05-11T04:10:08;100554.54;;;9.63;72.03
42411;BME280;28056;51.112;0.984;2023-05-11T04:12:35;100554.23;;;8.98;72.87
42411;BME280;28056;51.112;0.984;2023-05-11T04:15:03;100553.46;;;8.69;74.71
42411;BME280;28056;51.112;0.984;2023-05-11T04:17:30;100555.49;;;9.08;73.33
42411;BME280;28056;51.112;0.984;2023-05-11T04:19:58;100557.00;;;9.34;72.74
42411;BME280;28056;51.112;0.984;2023-05-11T04:22:25;100558.05;;;9.38;72.27
42411;BME280;28056;51.112;0.984;2023-05-11T04:24:52;100558.24;;;9.46;72.11
42411;BME280;28056;51.112;0.984;2023-05-11T04:27:19;100556.30;;;8.80;74.97
42411;BME280;28056;51.112;0.984;2023-05-11T04:29:46;100558.45;;;8.91;74.70
42411;BME280;28056;51.112;0.984;2023-05-11T04:32:13;100559.87;;;9.11;75.03
42411;BME280;28056;51.112;0.984;2023-05-11T04:34:40;100557.87;;;8.31;78.18
42411;BME280;28056;51.112;0.984;2023-05-11T04:37:07;100560.90;;;8.27;77.70
42411;BME280;28056;51.112;0.984;2023-05-11T04:39:34;100559.50;;;8.43;78.15
42411;BME280;28056;51.112;0.984;2023-05-11T04:42:02;100562.08;;;8.41;77.74
42411;BME280;28056;51.112;0.984;2023-05-11T04:44:29;100565.83;;;9.06;75.54
42411;BME280;28056;51.112;0.984;2023-05-11T04:46:57;100567.07;;;8.90;75.81
42411;BME280;28056;51.112;0.984;2023-05-11T04:49:24;100567.52;;;9.13;74.43
42411;BME280;28056;51.112;0.984;2023-05-11T04:51:51;100567.86;;;9.36;73.61
42411;BME280;28056;51.112;0.984;2023-05-11T04:54:18;100572.12;;;9.17;73.51
42411;BME280;28056;51.112;0.984;2023-05-11T04:56:45;100572.19;;;9.51;72.03
42411;BME280;28056;51.112;0.984;2023-05-11T04:59:12;100571.57;;;9.76;71.77
42411;BME280;28056;51.112;0.984;2023-05-11T05:01:39;100572.39;;;9.00;73.06
42411;BME280;28056;51.112;0.984;2023-05-11T05:04:06;100572.87;;;9.76;71.62
42411;BME280;28056;51.112;0.984;2023-05-11T05:06:34;100580.01;;;10.24;70.00
42411;BME280;28056;51.112;0.984;2023-05-11T05:09:02;100578.39;;;10.49;68.92
42411;BME280;28056;51.112;0.984;2023-05-11T05:11:29;100581.89;;;10.29;69.19
42411;BME280;28056;51.112;0.984;2023-05-11T05:13:56;100581.89;;;10.25;69.50
42411;BME280;28056;51.112;0.984;2023-05-11T05:16:24;100584.83;;;9.87;70.21
42411;BME280;28056;51.112;0.984;2023-05-11T05:18:51;100587.59;;;10.00;70.16
42411;BME280;28056;51.112;0.984;2023-05-11T05:21:19;100586.55;;;10.55;68.48
42411;BME280;28056;51.112;0.984;2023-05-11T05:23:47;100585.72;;;9.33;72.35
42411;BME280;28056;51.112;0.984;2023-05-11T05:26:15;100592.03;;;9.62;72.78
42411;BME280;28056;51.112;0.984;2023-05-11T05:28:42;100600.06;;;10.36;70.20
42411;BME280;28056;51.112;0.984;2023-05-11T05:31:09;100597.43;;;10.04;71.84
42411;BME280;28056;51.112;0.984;2023-05-11T05:33:36;100600.23;;;9.20;75.33
42411;BME280;28056;51.112;0.984;2023-05-11T05:36:04;100603.20;;;9.51;75.66
42411;BME280;28056;51.112;0.984;2023-05-11T05:38:31;100606.76;;;10.49;71.95
42411;BME280;28056;51.112;0.984;2023-05-11T05:40:59;100608.13;;;10.13;72.44
42411;BME280;28056;51.112;0.984;2023-05-11T05:43:26;100607.81;;;9.38;74.90
42411;BME280;28056;51.112;0.984;2023-05-11T05:45:53;100609.53;;;9.59;76.59
42411;BME280;28056;51.112;0.984;2023-05-11T05:48:20;100611.59;;;9.35;77.05
42411;BME280;28056;51.112;0.984;2023-05-11T05:50:48;100613.42;;;9.27;76.34
42411;BME280;28056;51.112;0.984;2023-05-11T05:53:16;100614.85;;;9.41;76.90
42411;BME280;28056;51.112;0.984;2023-05-11T05:55:43;100616.81;;;9.51;77.55
42411;BME280;28056;51.112;0.984;2023-05-11T05:58:11;100618.72;;;9.39;77.69
42411;BME280;28056;51.112;0.984;2023-05-11T06:00:38;100621.25;;;9.49;77.74
42411;BME280;28056;51.112;0.984;2023-05-11T06:03:05;100624.22;;;9.40;78.70
42411;BME280;28056;51.112;0.984;2023-05-11T06:05:32;100623.51;;;10.12;76.84
42411;BME280;28056;51.112;0.984;2023-05-11T06:07:59;100621.59;;;9.56;78.29
42411;BME280;28056;51.112;0.984;2023-05-11T06:10:26;100620.78;;;9.83;77.55
42411;BME280;28056;51.112;0.984;2023-05-11T06:12:54;100621.32;;;9.52;78.94
42411;BME280;28056;51.112;0.984;2023-05-11T06:15:21;100623.92;;;9.06;79.76
42411;BME280;28056;51.112;0.984;2023-05-11T06:17:49;100622.50;;;8.53;83.26
42411;BME280;28056;51.112;0.984;2023-05-11T06:20:16;100623.61;;;8.80;83.78
42411;BME280;28056;51.112;0.984;2023-05-11T06:22:43;100627.24;;;8.99;83.25
42411;BME280;28056;51.112;0.984;2023-05-11T06:25:10;100628.94;;;8.78;84.43
42411;BME280;28056;51.112;0.984;2023-05-11T06:27:38;100633.47;;;8.79;85.16
42411;BME280;28056;51.112;0.984;2023-05-11T06:30:07;100636.62;;;9.23;85.30
42411;BME280;28056;51.112;0.984;2023-05-11T06:32:35;100636.89;;;9.41;83.40
42411;BME280;28056;51.112;0.984;2023-05-11T06:35:02;100635.68;;;9.66;83.19
42411;BME280;28056;51.112;0.984;2023-05-11T06:37:30;100637.47;;;9.36;83.04
42411;BME280;28056;51.112;0.984;2023-05-11T06:39:58;100640.40;;;9.27;83.20
42411;BME280;28056;51.112;0.984;2023-05-11T06:42:25;100643.61;;;10.24;81.68
42411;BME280;28056;51.112;0.984;2023-05-11T06:44:53;100646.28;;;9.25;83.76
42411;BME280;28056;51.112;0.984;2023-05-11T06:47:20;100648.25;;;10.13;80.61
42411;BME280;28056;51.112;0.984;2023-05-11T06:49:47;100650.22;;;9.71;81.71
42411;BME280;28056;51.112;0.984;2023-05-11T06:52:14;100649.42;;;10.40;79.01
42411;BME280;28056;51.112;0.984;2023-05-11T06:54:41;100648.70;;;10.32;79.71
42411;BME280;28056;51.112;0.984;2023-05-11T06:57:08;100649.80;;;9.96;81.06
42411;BME280;28056;51.112;0.984;2023-05-11T06:59:35;100646.97;;;11.16;77.40
42411;BME280;28056;51.112;0.984;2023-05-11T07:02:02;100649.42;;;10.74;77.28
42411;BME280;28056;51.112;0.984;2023-05-11T07:04:30;100653.68;;;10.46;77.60
42411;BME280;28056;51.112;0.984;2023-05-11T07:06:58;100654.72;;;10.52;78.80
42411;BME280;28056;51.112;0.984;2023-05-11T07:09:25;100650.10;;;12.55;73.57
42411;BME280;28056;51.112;0.984;2023-05-11T07:11:52;100651.27;;;11.57;75.52
42411;BME280;28056;51.112;0.984;2023-05-11T07:14:20;100651.32;;;11.89;73.84
42411;BME280;28056;51.112;0.984;2023-05-11T07:16:47;100650.02;;;12.62;72.02
42411;BME280;28056;51.112;0.984;2023-05-11T07:19:14;100651.69;;;12.23;72.79
42411;BME280;28056;51.112;0.984;2023-05-11T07:21:42;100654.37;;;13.35;67.77
42411;BME280;28056;51.112;0.984;2023-05-11T07:24:10;100652.29;;;12.29;71.20
42411;BME280;28056;51.112;0.984;2023-05-11T07:26:37;100655.95;;;12.22;70.93
42411;BME280;28056;51.112;0.984;2023-05-11T07:29:04;100657.99;;;12.96;69.51
42411;BME280;28056;51.112;0.984;2023-05-11T07:31:31;100660.17;;;12.61;72.85
42411;BME280;28056;51.112;0.984;2023-05-11T07:33:59;100658.89;;;13.57;67.19
42411;BME280;28056;51.112;0.984;2023-05-11T07:36:26;100659.85;;;13.88;67.03
42411;BME280;28056;51.112;0.984;2023-05-11T07:38:54;100663.89;;;14.55;63.08
42411;BME280;28056;51.112;0.984;2023-05-11T07:41:22;100663.51;;;14.67;63.55
42411;BME280;28056;51.112;0.984;2023-05-11T07:43:50;100664.10;;;14.22;65.01
42411;BME280;28056;51.112;0.984;2023-05-11T07:46:17;100660.98;;;13.80;63.77
42411;BME280;28056;51.112;0.984;2023-05-11T07:48:45;100662.83;;;14.00;65.67
42411;BME280;28056;51.112;0.984;2023-05-11T07:51:13;100664.41;;;14.83;64.92
42411;BME280;28056;51.112;0.984;2023-05-11T07:53:40;100664.01;;;15.02;64.09
42411;BME280;28056;51.112;0.984;2023-05-11T07:56:08;100664.51;;;14.30;63.89
42411;BME280;28056;51.112;0.984;2023-05-11T07:58:35;100665.78;;;14.85;66.44
42411;BME280;28056;51.112;0.984;2023-05-11T08:01:03;100665.70;;;14.09;64.63
42411;BME280;28056;51.112;0.984;2023-05-11T08:03:30;100667.84;;;14.28;66.91
42411;BME280;28056;51.112;0.984;2023-05-11T08:05:58;100665.29;;;15.12;66.23
42411;BME280;28056;51.112;0.984;2023-05-11T08:08:26;100670.54;;;15.81;62.06
42411;BME280;28056;51.112;0.984;2023-05-11T08:10:53;100667.16;;;16.10;61.06
42411;BME280;28056;51.112;0.984;2023-05-11T08:13:21;100666.38;;;16.71;62.44
42411;BME280;28056;51.112;0.984;2023-05-11T08:15:48;100666.30;;;16.18;61.72
42411;BME280;28056;51.112;0.984;2023-05-11T08:18:16;100670.30;;;16.14;61.14
42411;BME280;28056;51.112;0.984;2023-05-11T08:20:44;100673.49;;;15.38;59.76
42411;BME280;28056;51.112;0.984;2023-05-11T08:23:11;100675.63;;;15.38;60.86
42411;BME280;28056;51.112;0.984;2023-05-11T08:25:38;100674.73;;;14.14;64.43
42411;BME280;28056;51.112;0.984;2023-05-11T08:28:04;100678.69;;;15.57;61.73
42411;BME280;28056;51.112;0.984;2023-05-11T08:30:31;100678.26;;;15.12;62.14
42411;BME280;28056;51.112;0.984;2023-05-11T08:32:58;100677.40;;;14.66;63.29
42411;BME280;28056;51.112;0.984;2023-05-11T08:35:25;100679.92;;;15.80;58.57
42411;BME280;28056;51.112;0.984;2023-05-11T08:37:53;100675.15;;;15.79;55.56
42411;BME280;28056;51.112;0.984;2023-05-11T08:40:20;100676.14;;;16.65;58.65
42411;BME280;28056;51.112;0.984;2023-05-11T08:42:52;100680.00;;;16.60;56.55
42411;BME280;28056;51.112;0.984;2023-05-11T08:45:21;100684.56;;;15.54;60.83
42411;BME280;28056;51.112;0.984;2023-05-11T08:47:49;100684.92;;;16.09;59.91
42411;BME280;28056;51.112;0.984;2023-05-11T08:50:17;100686.23;;;15.61;60.07
42411;BME280;28056;51.112;0.984;2023-05-11T08:52:44;100682.12;;;16.32;61.08
42411;BME280;28056;51.112;0.984;2023-05-11T08:55:12;100682.78;;;15.15;60.52
42411;BME280;28056;51.112;0.984;2023-05-11T08:57:40;100682.24;;;14.77;63.21
42411;BME280;28056;51.112;0.984;2023-05-11T09:00:11;100683.25;;;15.05;60.58
42411;BME280;28056;51.112;0.984;2023-05-11T09:02:39;100680.95;;;16.13;61.39
42411;BME280;28056;51.112;0.984;2023-05-11T09:05:07;100684.25;;;15.04;60.25
42411;BME280;28056;51.112;0.984;2023-05-11T09:07:36;100685.30;;;15.41;59.81
42411;BME280;28056;51.112;0.984;2023-05-11T09:10:06;100686.85;;;15.17;62.74
42411;BME280;28056;51.112;0.984;2023-05-11T09:12:34;100680.26;;;16.91;58.87
42411;BME280;28056;51.112;0.984;2023-05-11T09:15:02;100680.55;;;17.02;54.90
42411;BME280;28056;51.112;0.984;2023-05-11T09:17:29;100684.80;;;17.10;57.50
42411;BME280;28056;51.112;0.984;2023-05-11T09:19:58;100680.30;;;16.65;56.38
42411;BME280;28056;51.112;0.984;2023-05-11T09:22:27;100682.98;;;15.67;56.46
42411;BME280;28056;51.112;0.984;2023-05-11T09:24:55;100680.97;;;17.53;52.42
42411;BME280;28056;51.112;0.984;2023-05-11T09:27:23;100681.27;;;18.06;54.46
42411;BME280;28056;51.112;0.984;2023-05-11T09:29:52;100682.18;;;18.38;56.26
42411;BME280;28056;51.112;0.984;2023-05-11T09:32:20;100680.24;;;19.56;52.50
42411;BME280;28056;51.112;0.984;2023-05-11T09:34:47;100684.39;;;18.99;58.02
42411;BME280;28056;51.112;0.984;2023-05-11T09:37:16;100680.69;;;18.62;52.51
42411;BME280;28056;51.112;0.984;2023-05-11T09:39:44;100681.91;;;18.66;55.98
42411;BME280;28056;51.112;0.984;2023-05-11T09:42:13;100675.61;;;18.56;56.07
42411;BME280;28056;51.112;0.984;2023-05-11T09:44:40;100678.14;;;17.51;55.04
42411;BME280;28056;51.112;0.984;2023-05-11T09:47:12;100676.67;;;16.33;54.95
42411;BME280;28056;51.112;0.984;2023-05-11T09:49:40;100676.94;;;17.68;51.48
42411;BME280;28056;51.112;0.984;2023-05-11T09:52:09;100674.82;;;16.94;53.94
42411;BME280;28056;51.112;0.984;2023-05-11T09:54:40;100671.70;;;16.38;57.87
42411;BME280;28056;51.112;0.984;2023-05-11T09:57:22;100670.46;;;16.65;58.25
42411;BME280;28056;51.112;0.984;2023-05-11T09:59:50;100679.56;;;15.06;60.48
42411;BME280;28056;51.112;0.984;2023-05-11T10:02:19;100676.27;;;14.31;64.89
42411;BME280;28056;51.112;0.984;2023-05-11T10:04:47;100676.11;;;14.68;67.23
42411;BME280;28056;51.112;0.984;2023-05-11T10:07:27;100678.40;;;14.88;63.94
42411;BME280;28056;51.112;0.984;2023-05-11T10:09:56;100673.60;;;15.94;62.45
42411;BME280;28056;51.112;0.984;2023-05-11T10:12:25;100672.47;;;15.64;62.68
42411;BME280;28056;51.112;0.984;2023-05-11T10:14:54;100672.01;;;15.73;61.26
42411;BME280;28056;51.112;0.984;2023-05-11T10:17:22;100668.35;;;15.59;58.01
42411;BME280;28056;51.112;0.984;2023-05-11T10:19:53;100667.18;;;16.31;57.88
42411;BME280;28056;51.112;0.984;2023-05-11T10:22:22;100670.56;;;15.18;57.10
42411;BME280;28056;51.112;0.984;2023-05-11T10:24:50;100671.06;;;14.80;58.79
42411;BME280;28056;51.112;0.984;2023-05-11T10:27:18;100665.49;;;15.76;58.54
42411;BME280;28056;51.112;0.984;2023-05-11T10:29:46;100665.11;;;16.19;56.03
42411;BME280;28056;51.112;0.984;2023-05-11T10:32:14;100664.84;;;16.08;54.63
42411;BME280;28056;51.112;0.984;2023-05-11T10:34:42;100664.56;;;17.35;52.42
42411;BME280;28056;51.112;0.984;2023-05-11T10:37:10;100665.05;;;17.41;50.33
42411;BME280;28056;51.112;0.984;2023-05-11T10:39:44;100665.57;;;16.85;51.63
42411;BME280;28056;51.112;0.984;2023-05-11T10:42:23;100663.19;;;15.72;54.39
42411;BME280;28056;51.112;0.984;2023-05-11T10:45:13;100661.76;;;15.99;55.77
42411;BME280;28056;51.112;0.984;2023-05-11T10:50:40;100656.50;;;16.16;56.34
42411;BME280;28056;51.112;0.984;2023-05-11T10:53:22;100654.17;;;16.03;53.35
42411;BME280;28056;51.112;0.984;2023-05-11T10:56:05;100654.06;;;15.28;55.37
42411;BME280;28056;51.112;0.984;2023-05-11T10:58:51;100653.49;;;15.92;54.57
42411;BME280;28056;51.112;0.984;2023-05-11T11:01:35;100654.54;;;15.93;53.19
42411;BME280;28056;51.112;0.984;2023-05-11T11:04:09;100655.92;;;16.17;51.84
42411;BME280;28056;51.112;0.984;2023-05-11T11:06:39;100655.14;;;17.49;53.44
42411;BME280;28056;51.112;0.984;2023-05-11T11:09:08;100657.67;;;17.46;53.28
42411;BME280;28056;51.112;0.984;2023-05-11T11:11:37;100655.30;;;17.64;48.31
42411;BME280;28056;51.112;0.984;2023-05-11T11:14:06;100655.54;;;18.43;43.32
42411;BME280;28056;51.112;0.984;2023-05-11T11:16:34;100653.03;;;19.76;49.21
42411;BME280;28056;51.112;0.984;2023-05-11T11:19:39;100652.80;;;19.94;46.99
42411;BME280;28056;51.112;0.984;2023-05-11T11:22:42;100648.03;;;21.14;45.87
42411;BME280;28056;51.112;0.984;2023-05-11T11:25:11;100647.74;;;20.37;47.56
42411;BME280;28056;51.112;0.984;2023-05-11T11:27:56;100644.65;;;21.51;47.97
42411;BME280;28056;51.112;0.984;2023-05-11T11:30:25;100642.87;;;22.50;42.88
42411;BME280;28056;51.112;0.984;2023-05-11T11:33:29;100639.62;;;22.94;47.03
42411;BME280;28056;51.112;0.984;2023-05-11T11:35:57;100637.45;;;22.00;41.37
42411;BME280;28056;51.112;0.984;2023-05-11T11:38:25;100636.01;;;23.21;42.64
42411;BME280;28056;51.112;0.984;2023-05-11T11:40:52;100633.69;;;23.40;38.55
42411;BME280;28056;51.112;0.984;2023-05-11T11:43:21;100633.96;;;23.49;41.76
42411;BME280;28056;51.112;0.984;2023-05-11T11:45:51;100631.06;;;22.98;37.21
42411;BME280;28056;51.112;0.984;2023-05-11T11:48:21;100626.60;;;23.02;36.91
42411;BME280;28056;51.112;0.984;2023-05-11T11:51:00;100626.29;;;22.63;37.91
42411;BME280;28056;51.112;0.984;2023-05-11T11:54:01;100621.52;;;23.06;40.75
42411;BME280;28056;51.112;0.984;2023-05-11T11:56:38;100622.50;;;22.17;40.34
42411;BME280;28056;51.112;0.984;2023-05-11T11:59:05;100623.44;;;21.85;41.79
42411;BME280;28056;51.112;0.984;2023-05-11T12:01:37;100619.61;;;22.45;39.85
42411;BME280;28056;51.112;0.984;2023-05-11T12:04:38;100622.75;;;21.03;40.25
42411;BME280;28056;51.112;0.984;2023-05-11T12:07:12;100624.68;;;21.61;38.99
42411;BME280;28056;51.112;0.984;2023-05-11T12:09:41;100624.67;;;21.92;37.42
42411;BME280;28056;51.112;0.984;2023-05-11T12:12:11;100629.73;;;19.50;43.45
42411;BME280;28056;51.112;0.984;2023-05-11T12:14:39;100627.75;;;20.38;44.90
42411;BME280;28056;51.112;0.984;2023-05-11T12:17:07;100632.10;;;19.05;44.21
42411;BME280;28056;51.112;0.984;2023-05-11T12:19:35;100628.88;;;19.45;45.03
42411;BME280;28056;51.112;0.984;2023-05-11T12:22:03;100628.31;;;18.56;45.14
42411;BME280;28056;51.112;0.984;2023-05-11T12:24:30;100624.54;;;17.85;49.40
42411;BME280;28056;51.112;0.984;2023-05-11T12:26:57;100627.19;;;18.99;45.57
42411;BME280;28056;51.112;0.984;2023-05-11T12:29:25;100628.79;;;19.02;47.34
42411;BME280;28056;51.112;0.984;2023-05-11T12:31:52;100635.93;;;18.85;46.51
42411;BME280;28056;51.112;0.984;2023-05-11T12:34:21;100640.95;;;18.99;46.22
42411;BME280;28056;51.112;0.984;2023-05-11T12:36:50;100638.43;;;19.75;48.01
42411;BME280;28056;51.112;0.984;2023-05-11T12:39:19;100639.54;;;19.83;46.53
42411;BME280;28056;51.112;0.984;2023-05-11T12:41:47;100640.94;;;21.07;45.72
42411;BME280;28056;51.112;0.984;2023-05-11T12:44:16;100653.07;;;19.47;42.32
42411;BME280;28056;51.112;0.984;2023-05-11T12:46:44;100656.66;;;19.85;41.53
42411;BME280;28056;51.112;0.984;2023-05-11T12:49:14;100660.36;;;18.35;41.74
42411;BME280;28056;51.112;0.984;2023-05-11T12:51:45;100657.89;;;19.00;45.24
42411;BME280;28056;51.112;0.984;2023-05-11T12:54:22;100662.56;;;18.75;43.96
42411;BME280;28056;51.112;0.984;2023-05-11T12:56:50;100666.79;;;19.41;44.02
42411;BME280;28056;51.112;0.984;2023-05-11T12:59:28;100672.75;;;18.72;42.14
42411;BME280;28056;51.112;0.984;2023-05-11T13:02:05;100677.29;;;19.16;41.14
42411;BME280;28056;51.112;0.984;2023-05-11T13:04:32;100684.64;;;20.00;41.95
42411;BME280;28056;51.112;0.984;2023-05-11T13:07:00;100682.75;;;19.44;41.48
42411;BME280;28056;51.112;0.984;2023-05-11T13:09:27;100682.00;;;20.21;40.41
42411;BME280;28056;51.112;0.984;2023-05-11T13:12:11;100678.24;;;20.22;37.20